24/04/05 - 23h:22mDenunciar

Gulfstream GII-B

No mesmo dia em que tivemos a visita do Tucano pertecente à Esquadrilha da Fumaça, este belíssimo jato executivo pousou em SBPB trazendo alguns turistas texanos no final de tarde. Os turbojatos Rolls Royce Spey responsáveis pela propulsão da aeronave geram um som magnífico... Além do excelente cheiro de JET-A1 queimado! "A very busy day"...





METAR SBPB 250200Z 08005KT CAVOK 28/24 Q1012=

Comentários (0)

Fotos postadas a mais de 15 dias não podem receber comentários.